Time;durP1;ratioP1;P1;durP2;ratioP2;P2;SDS_P1;SDS_P2;PMS_P1;PMS_P2;Temp;Humidity;BMP_temperature;BMP_pressure;BME280_temperature;BME280_humidity;BME280_pressure;Samples;Min_cycle;Max_cycle;Signal;HPM_P1;HPM_P2
2023/10/16 00:04:35;;;;;;;;;;;6.60;99.90;;;;;;12498377;28;20301;-85
2023/10/16 00:10:37;;;;;;;;;;;6.60;99.90;;;;;;12492508;28;20614;-84
2023/10/16 00:16:39;;;;;;;;;;;6.70;99.90;;;;;;12490143;28;19932;-85
2023/10/16 00:22:43;;;;;;;;;;;6.60;99.90;;;;;;12509099;28;20298;-84
2023/10/16 00:28:46;;;;;;;;;;;6.70;99.90;;;;;;12493868;28;20023;-83
2023/10/16 00:34:48;;;;;;;;;;;6.70;99.90;;;;;;12496978;28;19974;-84
2023/10/16 00:47:11;;;;;;;;;;;6.70;99.90;;;;;;12502344;28;19936;-83
2023/10/16 00:53:13;;;;;;;;;;;6.70;99.90;;;;;;12507464;28;19928;-84
2023/10/16 00:59:18;;;;;;;;;;;6.70;99.90;;;;;;12497492;28;20467;-82
2023/10/16 01:05:23;;;;;;;;;;;6.70;99.90;;;;;;12502723;28;19936;-83
2023/10/16 01:11:26;;;;;;;;;;;6.60;99.90;;;;;;12506825;28;20373;-82
2023/10/16 01:17:31;;;;;;;;;;;6.60;99.90;;;;;;12498936;28;19933;-84
2023/10/16 01:23:37;;;;;;;;;;;6.60;99.90;;;;;;12500533;28;19928;-82
2023/10/16 01:29:38;;;;;;;;;;;6.70;99.90;;;;;;12499462;28;19929;-83
2023/10/16 01:35:40;;;;;;;;;;;6.60;99.90;;;;;;12485464;28;19929;-83
2023/10/16 01:41:43;;;;;;;;;;;6.60;99.90;;;;;;12492184;28;19929;-82
2023/10/16 01:47:44;;;;;;;;;;;6.70;99.90;;;;;;12479273;28;20377;-84
2023/10/16 01:53:50;;;;;;;;;;;6.50;99.90;;;;;;12505387;28;19928;-83
2023/10/16 01:59:51;;;;;;;;;;;6.60;99.90;;;;;;12488503;28;20297;-83
2023/10/16 02:05:53;;;;;;;;;;;6.60;99.90;;;;;;12499937;28;19935;-82
2023/10/16 02:11:55;;;;;;;;;;;6.60;99.90;;;;;;12483036;28;20394;-82
2023/10/16 02:17:57;;;;;;;;;;;6.60;99.90;;;;;;12490662;28;20316;-81
2023/10/16 02:24:03;;;;;;;;;;;6.50;99.90;;;;;;12500935;28;19929;-81
2023/10/16 02:36:25;;;;;;;;;;;6.70;99.90;;;;;;12486505;28;19924;-82
2023/10/16 02:42:28;;;;;;;;;;;6.60;99.90;;;;;;12490638;28;19929;-82
2023/10/16 02:48:30;;;;;;;;;;;6.60;99.90;;;;;;12489091;28;19960;-81
2023/10/16 02:54:32;;;;;;;;;;;6.60;99.90;;;;;;12487381;28;19932;-82
2023/10/16 03:00:35;;;;;;;;;;;6.50;99.90;;;;;;12491648;28;19933;-81
2023/10/16 03:06:40;;;;;;;;;;;6.70;99.90;;;;;;12488343;28;19968;-81
2023/10/16 03:12:42;;;;;;;;;;;6.80;99.90;;;;;;12475028;28;20409;-82
2023/10/16 03:18:47;;;;;;;;;;;6.80;99.90;;;;;;12497349;28;19935;-82
2023/10/16 03:24:51;;;;;;;;;;;6.50;99.90;;;;;;12503327;28;19960;-82
2023/10/16 03:30:58;;;;;;;;;;;6.60;99.90;;;;;;12480745;28;20032;-82
2023/10/16 03:37:04;;;;;;;;;;;6.60;99.90;;;;;;12492501;28;19986;-82
2023/10/16 03:43:05;;;;;;;;;;;6.80;99.90;;;;;;12504893;28;19933;-82
2023/10/16 03:49:08;;;;;;;;;;;6.70;99.90;;;;;;12507299;28;19929;-82
2023/10/16 03:55:22;;;;;;;;;;;6.70;99.90;;;;;;12503166;28;19928;-82
2023/10/16 04:01:27;;;;;;;;;;;6.70;99.90;;;;;;12501735;28;20407;-82
2023/10/16 04:07:31;;;;;;;;;;;6.80;99.90;;;;;;12497678;28;20297;-82
2023/10/16 04:13:33;;;;;;;;;;;6.70;99.90;;;;;;12497488;28;20593;-82
2023/10/16 04:19:36;;;;;;;;;;;6.80;99.90;;;;;;12493449;28;20027;-82
2023/10/16 04:26:25;;;;;;;;;;;6.80;99.90;;;;;;12497230;28;19971;-83
2023/10/16 04:40:28;;;;;;;;;;;7.00;99.90;;;;;;12503777;28;19929;-82
2023/10/16 04:44:49;;;;;;;;;;;6.90;99.90;;;;;;12484100;28;19940;-82
2023/10/16 04:51:09;;;;;;;;;;;6.90;99.90;;;;;;12478923;28;19940;-82
2023/10/16 04:57:47;;;;;;;;;;;6.90;99.90;;;;;;12474827;28;19929;-82
2023/10/16 05:10:17;;;;;;;;;;;7.00;99.90;;;;;;12485938;28;19931;-82
2023/10/16 05:16:30;;;;;;;;;;;7.10;99.90;;;;;;12497078;28;20307;-82
2023/10/16 06:19:43;;;;;;;;;;;7.10;99.90;;;;;;12493975;28;19952;-83
2023/10/16 06:25:47;;;;;;;;;;;7.10;99.90;;;;;;12493767;28;19928;-83
2023/10/16 06:31:58;;;;;;;;;;;7.20;99.90;;;;;;12488085;28;19983;-83
2023/10/16 06:38:01;;;;;;;;;;;7.40;99.90;;;;;;12498011;28;20028;-83
2023/10/16 06:44:03;;;;;;;;;;;7.20;99.90;;;;;;12531931;28;19965;-83
2023/10/16 06:56:31;;;;;;;;;;;7.50;99.90;;;;;;12553481;28;20305;-84
2023/10/16 07:02:35;;;;;;;;;;;7.40;99.90;;;;;;12533663;28;19933;-83
2023/10/16 07:08:38;;;;;;;;;;;7.50;99.90;;;;;;12548664;28;20507;-83
2023/10/16 07:14:40;;;;;;;;;;;7.60;99.90;;;;;;12535955;28;19988;-84
2023/10/16 07:27:14;;;;;;;;;;;7.80;99.90;;;;;;12524594;28;19936;-84
2023/10/16 07:33:16;;;;;;;;;;;7.80;99.90;;;;;;12498081;28;19928;-84
2023/10/16 07:39:18;;;;;;;;;;;7.90;99.90;;;;;;12510274;28;20027;-83
2023/10/16 07:45:20;;;;;;;;;;;7.70;99.90;;;;;;12500312;28;20929;-83
2023/10/16 07:51:25;;;;;;;;;;;8.10;99.90;;;;;;12491642;28;19929;-84
2023/10/16 07:57:27;;;;;;;;;;;8.10;99.90;;;;;;12498986;28;20501;-83
2023/10/16 08:03:38;;;;;;;;;;;8.10;99.90;;;;;;12524050;28;20712;-83
2023/10/16 08:15:45;;;;;;;;;;;8.10;99.90;;;;;;12510913;28;19929;-83
2023/10/16 08:21:47;;;;;;;;;;;8.00;99.90;;;;;;12494899;28;19983;-84
2023/10/16 08:27:50;;;;;;;;;;;8.10;99.90;;;;;;12511337;28;19932;-83
2023/10/16 08:33:54;;;;;;;;;;;8.60;99.90;;;;;;12490076;28;20284;-84
2023/10/16 08:39:56;;;;;;;;;;;8.80;99.90;;;;;;12478616;28;19975;-83
2023/10/16 08:45:58;;;;;;;;;;;9.20;99.90;;;;;;12505208;28;19932;-84
2023/10/16 08:52:10;;;;;;;;;;;9.30;99.90;;;;;;12482657;28;20023;-83
2023/10/16 08:58:12;;;;;;;;;;;9.10;99.90;;;;;;12487670;28;19944;-83
2023/10/16 09:04:14;;;;;;;;;;;8.70;99.90;;;;;;12491307;28;20261;-84
2023/10/16 09:10:21;;;;;;;;;;;8.70;99.90;;;;;;12496000;28;19976;-83
2023/10/16 09:16:24;;;;;;;;;;;8.50;99.90;;;;;;12498985;28;20018;-83
2023/10/16 09:22:28;;;;;;;;;;;8.60;99.90;;;;;;12493050;28;19929;-83
2023/10/16 09:28:32;;;;;;;;;;;8.60;99.90;;;;;;12489929;28;19925;-84
2023/10/16 09:34:34;;;;;;;;;;;9.00;99.90;;;;;;12476648;28;19932;-82
2023/10/16 09:40:37;;;;;;;;;;;8.70;99.90;;;;;;12496410;28;19933;-83
2023/10/16 09:52:48;;;;;;;;;;;9.40;99.90;;;;;;12490735;28;20594;-83
2023/10/16 09:58:51;;;;;;;;;;;9.60;99.90;;;;;;12493565;28;19936;-83
2023/10/16 10:04:59;;;;;;;;;;;9.80;99.90;;;;;;12503703;28;20051;-83
2023/10/16 10:11:26;;;;;;;;;;;9.50;99.90;;;;;;12487518;28;20015;-82
2023/10/16 10:17:33;;;;;;;;;;;10.10;99.90;;;;;;12500937;28;19925;-83
2023/10/16 10:23:36;;;;;;;;;;;10.30;99.90;;;;;;12487452;28;19929;-83
2023/10/16 10:29:47;;;;;;;;;;;10.00;99.90;;;;;;12480789;28;19971;-83
2023/10/16 10:35:49;;;;;;;;;;;9.80;99.90;;;;;;12490510;28;19928;-84
2023/10/16 10:41:53;;;;;;;;;;;10.20;99.90;;;;;;12511561;28;20410;-84
2023/10/16 10:47:55;;;;;;;;;;;10.00;99.90;;;;;;12494920;28;19933;-84
2023/10/16 10:53:58;;;;;;;;;;;9.70;99.90;;;;;;12496066;28;20347;-84
2023/10/16 11:06:18;;;;;;;;;;;10.50;99.90;;;;;;12497791;28;20044;-84
2023/10/16 11:12:24;;;;;;;;;;;10.30;99.90;;;;;;12502610;28;19933;-83
2023/10/16 11:18:28;;;;;;;;;;;10.50;99.90;;;;;;12476067;28;19935;-84
2023/10/16 11:24:30;;;;;;;;;;;10.60;99.90;;;;;;12491713;28;19929;-84
2023/10/16 11:30:38;;;;;;;;;;;10.50;99.90;;;;;;12484986;28;19936;-84
2023/10/16 11:36:50;;;;;;;;;;;10.60;99.90;;;;;;12485175;28;19932;-84
2023/10/16 11:42:56;;;;;;;;;;;10.40;99.90;;;;;;12499165;28;19988;-84
2023/10/16 11:49:03;;;;;;;;;;;10.60;99.90;;;;;;12504861;28;19991;-84
2023/10/16 11:55:07;;;;;;;;;;;10.50;99.90;;;;;;12482365;28;20027;-83
2023/10/16 12:01:11;;;;;;;;;;;10.40;99.90;;;;;;12491404;28;19952;-83
2023/10/16 12:07:33;;;;;;;;;;;10.10;99.90;;;;;;12491886;28;19936;-84
2023/10/16 12:13:36;;;;;;;;;;;10.30;99.90;;;;;;12501381;28;19929;-83
2023/10/16 12:19:40;;;;;;;;;;;10.30;99.90;;;;;;12505487;28;19933;-83
2023/10/16 12:25:41;;;;;;;;;;;10.30;99.90;;;;;;12498442;28;19936;-83
2023/10/16 12:31:44;;;;;;;;;;;10.60;99.90;;;;;;12479073;28;19932;-81
2023/10/16 12:37:45;;;;;;;;;;;10.40;99.90;;;;;;12489293;28;20518;-84
2023/10/16 12:43:48;;;;;;;;;;;10.60;99.90;;;;;;12493686;28;20531;-83
2023/10/16 12:49:53;;;;;;;;;;;10.90;99.90;;;;;;12501651;28;19964;-84
2023/10/16 12:55:55;;;;;;;;;;;10.70;99.90;;;;;;12495452;28;20015;-84
2023/10/16 13:01:59;;;;;;;;;;;10.80;99.90;;;;;;12498606;28;19964;-84
2023/10/16 13:08:02;;;;;;;;;;;10.70;99.90;;;;;;12488961;28;19978;-84
2023/10/16 13:14:05;;;;;;;;;;;10.60;99.90;;;;;;12496559;28;19936;-85
2023/10/16 13:20:16;;;;;;;;;;;10.20;99.90;;;;;;12495826;28;20004;-84
2023/10/16 13:26:21;;;;;;;;;;;10.60;99.90;;;;;;12491859;28;19933;-84
2023/10/16 13:32:24;;;;;;;;;;;10.80;99.90;;;;;;12493754;28;19936;-84
2023/10/16 13:38:28;;;;;;;;;;;11.10;99.90;;;;;;12489406;28;20463;-84
2023/10/16 13:44:32;;;;;;;;;;;11.00;99.90;;;;;;12484839;28;20003;-84
2023/10/16 13:50:34;;;;;;;;;;;11.20;99.90;;;;;;12500228;28;19939;-84
2023/10/16 13:56:36;;;;;;;;;;;11.30;99.90;;;;;;12502139;28;19963;-84
2023/10/16 14:02:40;;;;;;;;;;;11.20;99.90;;;;;;12478468;28;20040;-84
2023/10/16 14:08:42;;;;;;;;;;;11.00;99.90;;;;;;12505698;28;20362;-84
2023/10/16 14:14:50;;;;;;;;;;;10.90;99.90;;;;;;12484807;28;19933;-82
2023/10/16 14:20:53;;;;;;;;;;;11.00;99.90;;;;;;12481331;28;19936;-82
2023/10/16 14:26:55;;;;;;;;;;;11.20;99.90;;;;;;12499762;28;20063;-85
2023/10/16 14:33:00;;;;;;;;;;;10.90;99.90;;;;;;12483688;28;20314;-84
2023/10/16 14:39:04;;;;;;;;;;;10.60;99.90;;;;;;12497882;28;19929;-83
2023/10/16 14:45:06;;;;;;;;;;;10.60;99.90;;;;;;12499346;28;19929;-84
2023/10/16 14:51:16;;;;;;;;;;;10.90;99.90;;;;;;12481436;28;19952;-84
2023/10/16 14:57:24;;;;;;;;;;;11.10;99.90;;;;;;12485278;28;19936;-84
2023/10/16 15:03:25;;;;;;;;;;;10.80;99.90;;;;;;12483998;28;19929;-84
2023/10/16 15:09:27;;;;;;;;;;;10.80;99.90;;;;;;12486150;28;19929;-84
2023/10/16 15:15:29;;;;;;;;;;;10.60;99.90;;;;;;12467340;28;19936;-84
2023/10/16 15:21:31;;;;;;;;;;;10.90;99.90;;;;;;12484319;28;19964;-83
2023/10/16 15:27:35;;;;;;;;;;;10.80;99.90;;;;;;12486685;28;20460;-83
2023/10/16 15:33:37;;;;;;;;;;;10.90;99.90;;;;;;12490475;28;19979;-84
2023/10/16 15:39:39;;;;;;;;;;;10.50;99.90;;;;;;12493303;28;19928;-84
2023/10/16 15:45:42;;;;;;;;;;;10.80;99.90;;;;;;12502521;28;19928;-83
2023/10/16 15:51:44;;;;;;;;;;;10.80;99.90;;;;;;12506873;28;20565;-84
2023/10/16 15:57:49;;;;;;;;;;;10.50;99.90;;;;;;12479839;28;19933;-84
2023/10/16 16:03:51;;;;;;;;;;;10.30;99.90;;;;;;12471795;28;19993;-84
2023/10/16 16:09:53;;;;;;;;;;;10.10;99.90;;;;;;12480630;28;20282;-83
2023/10/16 16:16:00;;;;;;;;;;;10.50;99.90;;;;;;12490960;28;19940;-84
2023/10/16 16:22:02;;;;;;;;;;;10.10;99.90;;;;;;12501666;28;19968;-86
2023/10/16 16:28:04;;;;;;;;;;;10.00;99.90;;;;;;12493659;28;19936;-83
2023/10/16 16:34:06;;;;;;;;;;;10.20;99.90;;;;;;12493441;28;19932;-83
2023/10/16 16:40:08;;;;;;;;;;;9.90;99.90;;;;;;12492109;28;20023;-83
2023/10/16 16:46:10;;;;;;;;;;;10.00;99.90;;;;;;12496382;28;19933;-83
2023/10/16 16:52:12;;;;;;;;;;;10.10;99.90;;;;;;12501255;28;19943;-83
2023/10/16 16:58:14;;;;;;;;;;;10.20;99.90;;;;;;12494731;28;20484;-83
2023/10/16 17:04:16;;;;;;;;;;;10.10;99.90;;;;;;12484979;28;20019;-84
2023/10/16 17:10:18;;;;;;;;;;;10.00;99.90;;;;;;12488671;28;19976;-83
2023/10/16 17:16:20;;;;;;;;;;;10.00;99.90;;;;;;12492230;28;19925;-83
2023/10/16 17:22:23;;;;;;;;;;;9.90;99.90;;;;;;12479158;28;20385;-83
2023/10/16 17:28:32;;;;;;;;;;;9.90;99.90;;;;;;12494215;28;20023;-83
2023/10/16 17:34:34;;;;;;;;;;;9.90;99.90;;;;;;12482979;28;19929;-83
2023/10/16 17:40:36;;;;;;;;;;;9.90;99.90;;;;;;12497148;28;20373;-83
2023/10/16 17:46:40;;;;;;;;;;;9.90;99.90;;;;;;12477240;28;20357;-83
2023/10/16 17:52:46;;;;;;;;;;;9.90;99.90;;;;;;12498088;28;19929;-83
2023/10/16 17:58:48;;;;;;;;;;;9.80;99.90;;;;;;12494418;28;19935;-82
2023/10/16 18:04:52;;;;;;;;;;;9.50;99.90;;;;;;12475681;28;19929;-82
2023/10/16 18:10:54;;;;;;;;;;;9.40;99.90;;;;;;12490278;28;20297;-83
2023/10/16 18:16:59;;;;;;;;;;;9.40;99.90;;;;;;12488822;28;19972;-82
2023/10/16 18:23:04;;;;;;;;;;;9.40;99.90;;;;;;12474451;28;20012;-82
2023/10/16 18:29:11;;;;;;;;;;;9.40;99.90;;;;;;12487992;28;20384;-82
2023/10/16 18:35:17;;;;;;;;;;;9.30;99.90;;;;;;12480179;28;19956;-82
2023/10/16 18:41:19;;;;;;;;;;;9.20;99.90;;;;;;12473210;28;19929;-82
2023/10/16 18:47:22;;;;;;;;;;;9.20;99.90;;;;;;12485880;28;19924;-82
2023/10/16 18:53:23;;;;;;;;;;;9.10;99.90;;;;;;12491233;28;20470;-83
2023/10/16 18:59:27;;;;;;;;;;;9.10;99.90;;;;;;12496678;28;19963;-82
2023/10/16 19:05:30;;;;;;;;;;;9.10;99.90;;;;;;12503975;28;19936;-82
2023/10/16 19:11:34;;;;;;;;;;;9.00;99.90;;;;;;12487672;28;19979;-83
2023/10/16 19:17:36;;;;;;;;;;;8.90;99.90;;;;;;12505927;28;19955;-83
2023/10/16 19:23:38;;;;;;;;;;;8.90;99.90;;;;;;12505302;28;20729;-82
2023/10/16 19:29:40;;;;;;;;;;;8.60;99.90;;;;;;12494673;28;19954;-82
2023/10/16 19:35:42;;;;;;;;;;;8.60;99.90;;;;;;12493591;28;19928;-82
2023/10/16 19:41:48;;;;;;;;;;;8.60;99.90;;;;;;12505062;28;19925;-82
2023/10/16 19:47:53;;;;;;;;;;;8.60;99.90;;;;;;12503116;28;19952;-82
2023/10/16 19:53:55;;;;;;;;;;;8.40;99.90;;;;;;12488679;28;19979;-82
2023/10/16 20:00:01;;;;;;;;;;;8.40;99.90;;;;;;12491287;28;19939;-82
2023/10/16 20:06:06;;;;;;;;;;;8.40;99.90;;;;;;12486777;28;19925;-83
2023/10/16 20:12:11;;;;;;;;;;;8.50;99.90;;;;;;12493363;28;19964;-83
2023/10/16 20:18:27;;;;;;;;;;;8.50;99.90;;;;;;12722079;27;19926;-38
2023/10/16 20:24:30;;;;;;;;;;;8.50;99.90;;;;;;12704423;27;19927;-39
2023/10/16 20:30:32;;;;;;;;;;;8.40;99.90;;;;;;12706247;27;19927;-38
2023/10/16 20:36:35;;;;;;;;;;;8.30;99.90;;;;;;12700214;27;20007;-37
2023/10/16 20:42:40;;;;;;;;;;;8.20;99.90;;;;;;12693203;27;20014;-40
2023/10/16 20:48:42;;;;;;;;;;;7.90;99.90;;;;;;12685367;27;19933;-39
2023/10/16 20:54:43;;;;;;;;;;;7.80;99.90;;;;;;12690151;27;20395;-39
2023/10/16 21:00:46;;;;;;;;;;;7.90;99.90;;;;;;12675448;27;19928;-37
2023/10/16 21:06:50;;;;;;;;;;;8.00;99.90;;;;;;12645881;27;19931;-39
2023/10/16 21:12:52;;;;;;;;;;;8.00;99.90;;;;;;12620715;28;19934;-39
2023/10/16 21:18:54;;;;;;;;;;;8.10;99.90;;;;;;12643150;28;20349;-39
2023/10/16 21:24:56;;;;;;;;;;;7.60;99.90;;;;;;12637411;28;19936;-39
2023/10/16 21:30:58;;;;;;;;;;;7.50;99.90;;;;;;12611726;28;20315;-39
2023/10/16 21:37:00;;;;;;;;;;;7.50;99.90;;;;;;12622482;28;20687;-39
2023/10/16 21:43:02;;;;;;;;;;;7.40;99.90;;;;;;12611707;28;19932;-39
2023/10/16 21:49:04;;;;;;;;;;;7.70;99.90;;;;;;12617251;28;19931;-39
2023/10/16 21:55:06;;;;;;;;;;;7.50;99.90;;;;;;12613909;28;19967;-39
2023/10/16 22:01:09;;;;;;;;;;;7.70;99.90;;;;;;12606087;28;20045;-39
2023/10/16 22:07:11;;;;;;;;;;;7.80;99.90;;;;;;12606964;28;20418;-39
2023/10/16 22:13:14;;;;;;;;;;;7.90;99.90;;;;;;12603166;28;19927;-39
2023/10/16 22:19:16;;;;;;;;;;;7.80;99.90;;;;;;12608383;28;19931;-39
2023/10/16 22:25:19;;;;;;;;;;;7.90;99.90;;;;;;12613361;28;19981;-39
2023/10/16 22:31:21;;;;;;;;;;;7.90;99.90;;;;;;12613406;28;20027;-39
2023/10/16 22:37:23;;;;;;;;;;;7.90;99.90;;;;;;12602996;28;19924;-39
2023/10/16 22:43:26;;;;;;;;;;;7.70;99.90;;;;;;12611275;28;19978;-39
2023/10/16 22:49:27;;;;;;;;;;;7.70;99.90;;;;;;12611669;28;19974;-39
2023/10/16 22:55:30;;;;;;;;;;;7.70;99.90;;;;;;12607551;28;20425;-38
2023/10/16 23:01:32;;;;;;;;;;;7.60;99.90;;;;;;12590588;28;19928;-40
2023/10/16 23:07:35;;;;;;;;;;;7.50;99.90;;;;;;12591530;28;20394;-40
2023/10/16 23:13:37;;;;;;;;;;;7.60;99.90;;;;;;12597021;28;20360;-39
2023/10/16 23:19:39;;;;;;;;;;;7.60;99.90;;;;;;12529314;28;19951;-39
2023/10/16 23:25:41;;;;;;;;;;;7.60;99.90;;;;;;12540467;28;19976;-39
2023/10/16 23:31:48;;;;;;;;;;;7.60;99.90;;;;;;12538003;28;19932;-39
2023/10/16 23:37:51;;;;;;;;;;;7.50;99.90;;;;;;12519796;28;19925;-40
2023/10/16 23:49:59;;;;;;;;;;;7.50;99.90;;;;;;12536857;28;20019;-39
2023/10/16 23:56:09;;;;;;;;;;;7.40;99.90;;;;;;12546135;28;20419;-38
